Chestnut Hill, MA

8:39 AM EDT on May 28, 2015 (GMT -0400)
East Milton | | Change Station
CLOSE
Current Station
Airport
Location: East Milton,
Elevation: 630 ft
Nearby Weather Stations
Active Advisory: Special Statement

Elev 630 ft 42.21 °N, 71.11 °W | Updated 45 minutes ago

Partly Cloudy
Partly Cloudy
66 °F
Feels Like 66 °F
N
10
Wind Variable Wind from South
Gusts 21 mph

Today
High -- | Low -- °F
--% Chance of Precip.
Yesterday
High -- | Low -- °F
Precip. -- in
5:12 AM 8:11 PM
Waxing Gibbous, 75% visible
Pressure 30.18 in
Visibility -9999.0 miles
Clouds
Dew Point 61 °F
Humidity 84%
Rainfall 0.00 in
Snow Depth Not available.
UV Not available.
Pollen 10.20 out of 12
Air Quality Not available.
Flu Activity Local Activity
METAR KMQE 281154Z AUTO 19009G18KT 19/16 A3016 RMK AO1 SLP220 T01890161 10189 20161 51013

More Conditions Fewer Conditions

Pressure 30.18 in
Visibility -9999.0 miles
Clouds
Dew Point 61 °F
Humidity 84%
Rainfall 0.00 in
Snow Depth Not available.
UV Not available.
Pollen 10.20 out of 12
Air Quality Not available.
Flu Activity Local Activity
METAR KMQE 281154Z AUTO 19009G18KT 19/16 A3016 RMK AO1 SLP220 T01890161 10189 20161 51013

More Conditions Fewer Conditions

10-Day Weather Forecast

Almanac

Astronomy

May. 28, 2015 Rise Set
Actual Time
Civil Twilight
Nautical Twilight
Astronomical Twilight
Moon
Length of Visible Light
Length of Day
Tomorrow will be .
, % of the Moon is Illuminated

Today's Extremes

State Highs State Lows

Community

WunderPhotos

Upload Photos

1,824,960 photos uploaded!

WunderBlogs® & News

Nearby

Air Quality

  Air Quality AQ Index Pollutant
Not available.

Snow Depth

Station Depth Elevation

Earthquake Activity

City Distance Mag. Time & Date
Minimum magnitude displayed is 2.5.

Coastal Water Temperatures

Place Temperature

Stations

Nearby Weather Stations

Station Location Temp. Windchill Dew Point Humidity Wind Precip. Elev Updated Type
                   
Special Statement
Statement as of 8:08 AM EDT on May 28, 2015

... A few strong to severe thunderstorms are possible across much
of southern New England between 1 and 9 PM...

Showers and isolated thunderstorms are already beginning to
develop south of Long Island New York this morning. Early day
clouds will begin to give way to substantial sunshine by late
morning.

The main threat from these storms will be the potential for
localized heavy rainfall and dangerous cloud to ground lightning.
However..severe thunderstorms will be possible. The biggest
concern would be a localized strong to damaging wind gust with
hail a secondary concern.

If you have outdoor plans keep up with the latest weather
forecasts. If a thunderstorm approaches... seek an indoor shelter
immediately.